createdAt,value
2023-02-03T00:00:18.796Z,2.60
2023-02-03T00:03:04.181Z,2.42
2023-02-03T00:05:49.360Z,2.45
2023-02-03T00:08:36.271Z,2.85
2023-02-03T00:11:21.778Z,2.40
2023-02-03T00:14:07.882Z,2.47
2023-02-03T00:16:52.691Z,2.40
2023-02-03T00:19:37.371Z,1.92
2023-02-03T00:22:22.367Z,1.70
2023-02-03T00:25:07.267Z,2.28
2023-02-03T00:27:52.393Z,1.27
2023-02-03T00:30:37.742Z,1.73
2023-02-03T00:33:22.650Z,2.13
2023-02-03T00:36:08.557Z,1.85
2023-02-03T00:38:54.090Z,2.03
2023-02-03T00:41:38.959Z,1.80
2023-02-03T00:44:23.899Z,2.00
2023-02-03T00:47:08.752Z,2.00
2023-02-03T00:49:53.772Z,1.48
2023-02-03T00:52:38.771Z,1.80
2023-02-03T00:55:23.819Z,1.50
2023-02-03T00:58:08.605Z,1.65
2023-02-03T01:00:56.203Z,1.67
2023-02-03T01:03:41.381Z,1.70
2023-02-03T01:06:27.309Z,1.50
2023-02-03T01:09:12.493Z,0.80
2023-02-03T01:11:57.437Z,1.80
2023-02-03T01:14:42.340Z,1.60
2023-02-03T01:17:27.201Z,1.25
2023-02-03T01:20:13.684Z,1.38
2023-02-03T01:22:58.674Z,1.33
2023-02-03T01:25:43.371Z,1.20
2023-02-03T01:28:28.219Z,1.52
2023-02-03T01:31:18.794Z,0.90
2023-02-03T01:34:03.807Z,1.45
2023-02-03T01:36:48.982Z,1.60
2023-02-03T01:39:34.020Z,1.30
2023-02-03T01:42:19.012Z,1.60
2023-02-03T01:45:04.962Z,1.27
2023-02-03T01:47:56.110Z,1.55
2023-02-03T01:50:41.071Z,1.57
2023-02-03T01:53:26.030Z,1.70
2023-02-03T01:56:12.008Z,1.50
2023-02-03T01:58:58.857Z,1.20
2023-02-03T02:01:44.699Z,1.45
2023-02-03T02:04:37.236Z,1.70
2023-02-03T02:07:23.946Z,1.73
2023-02-03T02:10:09.483Z,1.58
2023-02-03T02:12:57.617Z,1.50
2023-02-03T02:16:00.149Z,1.45
2023-02-03T02:19:22.499Z,1.17
2023-02-03T02:22:21.789Z,1.42
2023-02-03T02:25:09.495Z,0.98
2023-02-03T02:28:18.323Z,0.88
2023-02-03T02:31:12.192Z,1.38
2023-02-03T02:34:07.344Z,0.97
2023-02-03T02:37:07.523Z,0.75
2023-02-03T02:40:05.397Z,1.00
2023-02-03T02:43:05.910Z,1.60
2023-02-03T02:45:56.547Z,1.60
2023-02-03T02:48:52.080Z,1.13
2023-02-03T02:51:40.438Z,1.48
2023-02-03T02:54:27.851Z,1.42
2023-02-03T02:57:14.720Z,1.15
2023-02-03T03:00:00.023Z,1.45
2023-02-03T03:02:45.060Z,0.50
2023-02-03T03:05:30.077Z,0.90
2023-02-03T03:08:18.577Z,1.10
2023-02-03T03:11:04.954Z,1.38
2023-02-03T03:13:53.058Z,1.10
2023-02-03T03:16:41.228Z,0.97
2023-02-03T03:19:37.368Z,1.10
2023-02-03T03:22:28.959Z,0.90
2023-02-03T03:25:20.807Z,1.40
2023-02-03T03:28:13.545Z,1.40
2023-02-03T03:30:58.598Z,1.17
2023-02-03T03:33:44.568Z,1.38
2023-02-03T03:36:42.393Z,1.50
2023-02-03T03:39:42.663Z,1.33
2023-02-03T03:43:04.811Z,1.48
2023-02-03T03:46:02.853Z,1.30
2023-02-03T03:49:01.241Z,1.80
2023-02-03T03:51:57.551Z,1.05
2023-02-03T03:54:44.101Z,1.90
2023-02-03T03:57:46.724Z,1.50
2023-02-03T04:00:35.507Z,1.07
2023-02-03T04:03:28.271Z,1.40
2023-02-03T04:06:13.922Z,1.58
2023-02-03T04:08:58.675Z,1.27
2023-02-03T04:12:01.873Z,1.05
2023-02-03T04:14:46.929Z,1.20
2023-02-03T04:17:33.965Z,1.40
2023-02-03T04:20:18.845Z,1.20
2023-02-03T04:23:03.665Z,1.08
2023-02-03T04:25:48.703Z,2.03
2023-02-03T04:28:33.417Z,0.90
2023-02-03T04:31:18.258Z,1.00
2023-02-03T04:34:03.444Z,1.10
2023-02-03T04:36:48.261Z,1.23
2023-02-03T04:39:33.077Z,1.55
2023-02-03T04:42:18.554Z,0.90
2023-02-03T04:45:03.718Z,1.20
2023-02-03T04:47:54.318Z,0.80
2023-02-03T04:50:39.587Z,0.77
2023-02-03T04:53:24.573Z,0.93
2023-02-03T04:56:09.412Z,1.00
2023-02-03T04:58:54.147Z,1.15
2023-02-03T05:01:38.971Z,1.15
2023-02-03T05:04:24.343Z,0.50
2023-02-03T05:07:09.733Z,0.85
2023-02-03T05:09:54.532Z,1.10
2023-02-03T05:12:39.705Z,0.40
2023-02-03T05:15:24.791Z,0.90
2023-02-03T05:18:09.543Z,1.10
2023-02-03T05:20:54.373Z,0.38
2023-02-03T05:23:39.168Z,0.80
2023-02-03T05:26:24.105Z,1.08
2023-02-03T05:29:10.034Z,1.23
2023-02-03T05:31:55.293Z,1.10
2023-02-03T05:34:42.059Z,1.10
2023-02-03T05:37:27.533Z,1.00
2023-02-03T05:40:31.469Z,0.98
2023-02-03T05:43:16.624Z,0.80
2023-02-03T05:46:03.363Z,0.80
2023-02-03T05:48:48.448Z,0.80
2023-02-03T05:51:33.344Z,0.60
2023-02-03T05:54:18.261Z,0.50
2023-02-03T05:57:03.125Z,0.45
2023-02-03T05:59:49.673Z,1.17
2023-02-03T06:02:34.654Z,0.80
2023-02-03T06:05:20.365Z,0.90
2023-02-03T06:08:05.504Z,0.80
2023-02-03T06:10:50.346Z,0.57
2023-02-03T06:13:35.460Z,0.98
2023-02-03T06:16:20.839Z,1.08
2023-02-03T06:19:05.918Z,1.00
2023-02-03T06:21:50.653Z,0.93
2023-02-03T06:24:35.592Z,0.90
2023-02-03T06:27:20.462Z,0.70
2023-02-03T06:30:05.855Z,0.65
2023-02-03T06:32:50.946Z,0.60
2023-02-03T06:35:35.753Z,0.43
2023-02-03T06:38:20.599Z,0.63
2023-02-03T06:41:05.304Z,0.70
2023-02-03T06:43:50.290Z,0.40
2023-02-03T06:46:35.326Z,0.70
2023-02-03T06:49:20.577Z,0.63
2023-02-03T06:52:05.454Z,0.50
2023-02-03T06:54:50.278Z,0.80
2023-02-03T06:57:35.347Z,0.70
2023-02-03T07:00:20.780Z,0.50
2023-02-03T07:03:05.819Z,0.60
2023-02-03T07:05:50.539Z,0.55
2023-02-03T07:08:35.372Z,0.82
2023-02-03T07:11:20.171Z,0.70
2023-02-03T07:14:05.053Z,0.20
2023-02-03T07:16:49.856Z,0.30
2023-02-03T07:19:34.677Z,0.50
2023-02-03T07:22:19.396Z,0.50
2023-02-03T07:25:04.542Z,0.47
2023-02-03T07:27:50.002Z,0.60
2023-02-03T07:30:35.016Z,0.80
2023-02-03T07:33:20.444Z,0.60
2023-02-03T07:36:06.639Z,0.50
2023-02-03T07:38:51.302Z,0.22
2023-02-03T07:41:36.321Z,0.30
2023-02-03T07:44:21.208Z,0.30
2023-02-03T07:47:06.225Z,0.40
2023-02-03T07:49:50.964Z,0.17
2023-02-03T07:52:36.889Z,0.30
2023-02-03T07:55:22.599Z,0.43
2023-02-03T07:58:07.838Z,0.52
2023-02-03T08:00:53.030Z,0.40
2023-02-03T08:03:37.828Z,0.70
2023-02-03T08:06:22.953Z,0.45
2023-02-03T08:09:08.225Z,0.30
2023-02-03T08:11:53.324Z,0.45
2023-02-03T08:14:38.096Z,0.35
2023-02-03T08:17:23.137Z,0.40
2023-02-03T08:20:09.140Z,0.47
2023-02-03T08:22:54.151Z,0.40
2023-02-03T08:25:39.202Z,0.30
2023-02-03T08:28:23.913Z,0.50
2023-02-03T08:31:10.871Z,0.50
2023-02-03T08:33:55.880Z,0.30
2023-02-03T08:36:40.625Z,0.40
2023-02-03T08:39:26.758Z,0.20
2023-02-03T08:42:11.889Z,0.60
2023-02-03T08:44:56.887Z,0.30
2023-02-03T08:47:41.713Z,0.47
2023-02-03T08:50:26.935Z,0.20
2023-02-03T08:53:11.833Z,0.60
2023-02-03T08:55:56.696Z,0.95
2023-02-03T08:58:41.706Z,0.60
2023-02-03T09:01:26.566Z,0.60
2023-02-03T09:04:12.850Z,0.40
2023-02-03T09:06:57.656Z,0.57
2023-02-03T09:09:42.735Z,0.55
2023-02-03T09:12:27.789Z,0.73
2023-02-03T09:15:12.615Z,0.30
2023-02-03T09:17:57.916Z,0.53
2023-02-03T09:20:42.642Z,0.80
2023-02-03T09:23:27.449Z,0.70
2023-02-03T09:26:14.472Z,0.70
2023-02-03T09:28:59.659Z,0.70
2023-02-03T09:31:46.845Z,0.73
2023-02-03T09:34:31.783Z,1.00
2023-02-03T09:37:16.734Z,0.80
2023-02-03T09:40:01.579Z,0.60
2023-02-03T09:43:12.574Z,0.30
2023-02-03T09:46:08.226Z,1.30
2023-02-03T09:48:58.141Z,0.63
2023-02-03T09:52:05.344Z,0.98
2023-02-03T09:54:56.585Z,0.90
2023-02-03T09:57:51.280Z,0.70
2023-02-03T10:00:42.803Z,0.70
2023-02-03T10:03:45.905Z,0.65
2023-02-03T10:06:46.173Z,0.47
2023-02-03T10:09:49.421Z,0.50
2023-02-03T10:12:41.803Z,0.65
2023-02-03T10:15:49.371Z,0.77
2023-02-03T10:19:03.897Z,0.70
2023-02-03T10:21:58.267Z,0.95
2023-02-03T10:24:58.941Z,0.95
2023-02-03T10:27:43.978Z,0.57
2023-02-03T10:30:45.221Z,0.80
2023-02-03T10:33:31.907Z,0.75
2023-02-03T10:36:21.597Z,0.77
2023-02-03T10:39:19.860Z,0.95
2023-02-03T10:42:06.810Z,0.60
2023-02-03T10:44:57.824Z,0.83
2023-02-03T10:47:48.147Z,0.70
2023-02-03T10:50:33.391Z,0.95
2023-02-03T10:53:18.373Z,0.80
2023-02-03T10:56:09.058Z,1.17
2023-02-03T10:58:59.352Z,1.00
2023-02-03T11:01:47.849Z,0.60
2023-02-03T11:04:33.671Z,1.20
2023-02-03T11:07:26.718Z,1.00
2023-02-03T11:10:35.973Z,0.95
2023-02-03T11:13:25.034Z,1.10
2023-02-03T11:16:20.684Z,1.00
2023-02-03T11:19:10.037Z,1.10
2023-02-03T11:21:59.945Z,0.98
2023-02-03T11:24:45.268Z,0.90
2023-02-03T11:27:33.052Z,0.87
2023-02-03T11:30:26.195Z,1.10
2023-02-03T11:33:20.133Z,0.73
2023-02-03T11:36:05.385Z,0.88
2023-02-03T11:38:50.463Z,1.13
2023-02-03T11:41:40.037Z,1.27
2023-02-03T11:44:29.200Z,1.13
2023-02-03T11:47:16.655Z,1.52
2023-02-03T11:50:19.434Z,1.08
2023-02-03T11:53:56.330Z,1.55
2023-02-03T11:57:03.611Z,1.43
2023-02-03T12:00:19.714Z,1.58
2023-02-03T12:03:20.125Z,1.30
2023-02-03T12:06:22.072Z,1.77
2023-02-03T12:09:25.631Z,1.95
2023-02-03T12:12:26.179Z,2.20
2023-02-03T12:15:40.242Z,1.88
2023-02-03T12:18:46.718Z,2.10
2023-02-03T12:21:43.402Z,1.48
2023-02-03T12:24:35.800Z,2.03
2023-02-03T12:27:39.665Z,1.80
2023-02-03T12:30:30.873Z,2.55
2023-02-03T12:33:24.827Z,2.58
2023-02-03T12:36:24.734Z,0.70
2023-02-03T12:39:25.447Z,2.60
2023-02-03T12:42:36.332Z,2.60
2023-02-03T12:45:30.181Z,2.17
2023-02-03T12:48:21.071Z,2.60
2023-02-03T12:51:11.738Z,2.30
2023-02-03T12:54:03.549Z,2.15
2023-02-03T12:56:53.502Z,2.10
2023-02-03T12:59:41.948Z,2.40
2023-02-03T13:02:32.371Z,2.30
2023-02-03T13:05:34.069Z,3.03
2023-02-03T13:08:29.128Z,1.52
2023-02-03T13:11:24.164Z,2.80
2023-02-03T13:14:29.055Z,2.83
2023-02-03T13:17:38.766Z,2.75
2023-02-03T13:20:27.101Z,3.65
2023-02-03T13:23:15.807Z,3.05
2023-02-03T13:26:28.956Z,4.00
2023-02-03T13:29:27.677Z,3.17
2023-02-03T13:32:49.622Z,3.25
2023-02-03T13:35:46.813Z,3.65
2023-02-03T13:38:53.036Z,3.75
2023-02-03T13:41:46.141Z,3.07
2023-02-03T13:44:31.298Z,3.67
2023-02-03T13:47:21.642Z,2.50
2023-02-03T13:50:18.563Z,3.28
2023-02-03T13:53:07.552Z,3.85
2023-02-03T13:55:55.762Z,3.97
2023-02-03T13:58:40.798Z,4.50
2023-02-03T14:01:40.034Z,3.80
2023-02-03T14:04:25.145Z,2.97
2023-02-03T14:07:28.286Z,4.15
2023-02-03T14:10:13.055Z,4.30
2023-02-03T14:12:59.583Z,3.78
2023-02-03T14:15:46.935Z,4.18
2023-02-03T14:18:34.892Z,3.90
2023-02-03T14:21:23.483Z,5.60
2023-02-03T14:24:12.307Z,6.00
2023-02-03T14:26:59.650Z,4.70
2023-02-03T14:29:44.607Z,5.38
2023-02-03T14:32:59.569Z,5.45
2023-02-03T14:35:44.738Z,5.32
2023-02-03T14:38:32.813Z,5.33
2023-02-03T14:41:23.364Z,7.07
2023-02-03T14:44:33.299Z,5.97
2023-02-03T14:47:45.996Z,5.50
2023-02-03T14:50:50.561Z,4.10
2023-02-03T14:54:04.291Z,5.67
2023-02-03T14:57:25.228Z,5.05
2023-02-03T15:00:19.180Z,5.28
2023-02-03T15:03:10.156Z,4.57
2023-02-03T15:05:59.014Z,4.95
2023-02-03T15:08:46.927Z,4.77
2023-02-03T15:11:33.605Z,3.97
2023-02-03T15:14:25.488Z,4.80
2023-02-03T15:17:30.393Z,4.28
2023-02-03T15:20:25.883Z,4.68
2023-02-03T15:23:25.433Z,4.93
2023-02-03T15:26:16.138Z,4.13
2023-02-03T15:29:03.152Z,5.50
2023-02-03T15:31:54.001Z,4.50
2023-02-03T15:34:44.814Z,4.40
2023-02-03T15:37:35.595Z,4.97
2023-02-03T15:40:26.210Z,4.47
2023-02-03T15:43:19.134Z,3.78
2023-02-03T15:46:07.278Z,4.57
2023-02-03T15:49:04.319Z,5.13
2023-02-03T15:51:58.900Z,1.23
2023-02-03T15:54:53.812Z,3.58
2023-02-03T15:57:39.131Z,4.70
2023-02-03T16:00:32.485Z,3.72
2023-02-03T16:03:41.025Z,4.13
2023-02-03T16:06:38.356Z,3.13
2023-02-03T16:09:33.280Z,4.45
2023-02-03T16:12:28.256Z,4.53
2023-02-03T16:15:24.755Z,4.10
2023-02-03T16:18:17.534Z,4.13
2023-02-03T16:21:03.349Z,3.53
2023-02-03T16:23:51.497Z,4.30
2023-02-03T16:26:38.318Z,4.72
2023-02-03T16:29:47.688Z,4.45
2023-02-03T16:32:51.681Z,4.60
2023-02-03T16:35:55.495Z,4.37
2023-02-03T16:39:09.203Z,4.43
2023-02-03T16:42:16.582Z,4.53
2023-02-03T16:45:21.501Z,4.25
2023-02-03T16:48:27.838Z,3.25
2023-02-03T16:51:17.073Z,4.70
2023-02-03T16:54:02.208Z,5.03
2023-02-03T16:56:47.364Z,5.03
2023-02-03T16:59:32.424Z,4.82
2023-02-03T17:02:17.391Z,5.03
2023-02-03T17:05:02.329Z,4.67
2023-02-03T17:07:47.392Z,4.72
2023-02-03T17:10:40.681Z,4.75
2023-02-03T17:13:25.900Z,5.18
2023-02-03T17:16:22.918Z,3.67
2023-02-03T17:19:12.424Z,3.50
2023-02-03T17:21:57.169Z,3.15
2023-02-03T17:24:42.118Z,2.72
2023-02-03T17:27:27.053Z,2.22
2023-02-03T17:30:13.003Z,2.33
2023-02-03T17:32:59.424Z,2.20
2023-02-03T17:35:45.129Z,2.78
2023-02-03T17:38:31.199Z,2.60
2023-02-03T17:53:30.997Z,3.30
2023-02-03T17:56:25.369Z,2.90
2023-02-03T17:59:10.092Z,2.58
2023-02-03T18:01:55.114Z,2.50
2023-02-03T18:04:39.947Z,2.35
2023-02-03T18:07:24.834Z,1.80
2023-02-03T18:10:10.029Z,2.15
2023-02-03T18:12:55.125Z,2.47
2023-02-03T18:15:40.197Z,1.80
2023-02-03T18:18:25.992Z,2.53
2023-02-03T18:21:13.993Z,1.70
2023-02-03T18:24:01.738Z,2.20
2023-02-03T18:26:52.079Z,1.60
2023-02-03T18:29:40.728Z,1.90
2023-02-03T18:32:25.745Z,1.38
2023-02-03T18:35:13.837Z,1.70
2023-02-03T18:37:58.611Z,1.50
2023-02-03T18:40:43.465Z,1.27
2023-02-03T18:43:28.338Z,1.30
2023-02-03T18:46:17.468Z,1.70
2023-02-03T18:49:02.387Z,2.05
2023-02-03T18:51:47.114Z,1.80
2023-02-03T18:54:32.289Z,2.30
2023-02-03T18:57:17.553Z,1.97
2023-02-03T19:00:03.309Z,2.30
2023-02-03T19:02:50.049Z,3.10
2023-02-03T19:05:35.140Z,2.90
2023-02-03T19:08:20.410Z,2.90
2023-02-03T19:11:05.236Z,2.97
2023-02-03T19:13:50.092Z,3.28
2023-02-03T19:16:35.132Z,3.10
2023-02-03T19:19:20.231Z,3.65
2023-02-03T19:22:05.594Z,3.85
2023-02-03T19:24:50.314Z,3.13
2023-02-03T19:27:35.244Z,3.65
2023-02-03T19:30:21.445Z,4.43
2023-02-03T19:33:06.151Z,4.07
2023-02-03T19:35:52.038Z,4.45
2023-02-03T19:38:37.252Z,2.83
2023-02-03T19:41:23.301Z,4.43
2023-02-03T19:44:08.213Z,4.70
2023-02-03T19:46:53.398Z,4.85
2023-02-03T19:49:38.476Z,4.55
2023-02-03T19:52:23.564Z,4.63
2023-02-03T19:55:08.785Z,5.65
2023-02-03T19:57:53.776Z,5.03
2023-02-03T20:00:39.196Z,4.60
2023-02-03T20:03:24.399Z,4.70
2023-02-03T20:06:10.086Z,4.47
2023-02-03T20:09:01.385Z,4.38
2023-02-03T20:11:46.226Z,3.60
2023-02-03T20:14:32.540Z,4.28
2023-02-03T20:17:17.470Z,4.88
2023-02-03T20:20:02.326Z,4.17
2023-02-03T20:22:47.453Z,4.60
2023-02-03T20:25:32.496Z,4.53
2023-02-03T20:28:17.594Z,4.55
2023-02-03T20:31:03.167Z,4.40
2023-02-03T20:33:48.101Z,4.70
2023-02-03T20:36:33.014Z,4.43
2023-02-03T20:39:19.886Z,4.07
2023-02-03T20:42:17.724Z,4.43
2023-02-03T20:45:02.738Z,4.00
2023-02-03T20:47:48.205Z,4.10
2023-02-03T20:50:41.962Z,4.03
2023-02-03T20:53:28.514Z,5.32
2023-02-03T20:56:16.081Z,4.63
2023-02-03T20:59:01.301Z,4.82
2023-02-03T21:01:46.891Z,4.30
2023-02-03T21:04:50.725Z,4.55
2023-02-03T21:07:36.341Z,4.05
2023-02-03T21:10:23.454Z,4.82
2023-02-03T21:13:28.941Z,5.22
2023-02-03T21:16:24.535Z,4.60
2023-02-03T21:19:14.603Z,4.63
2023-02-03T21:22:12.794Z,5.05
2023-02-03T21:24:59.849Z,6.10
2023-02-03T21:27:46.783Z,4.82
2023-02-03T21:30:34.732Z,5.30
2023-02-03T21:33:40.490Z,4.75
2023-02-03T21:36:30.013Z,4.63
2023-02-03T21:39:41.474Z,4.07
2023-02-03T21:42:42.012Z,4.50
2023-02-03T21:45:30.789Z,3.70
2023-02-03T21:48:30.328Z,3.70
2023-02-03T21:51:21.049Z,4.15
2023-02-03T21:54:23.615Z,3.40
2023-02-03T21:57:15.386Z,3.72
2023-02-03T22:00:00.363Z,3.63
2023-02-03T22:03:01.218Z,2.83
2023-02-03T22:05:46.630Z,3.10
2023-02-03T22:08:34.512Z,4.05
2023-02-03T22:11:22.351Z,3.70
2023-02-03T22:14:07.746Z,3.60
2023-02-03T22:16:52.656Z,4.30
2023-02-03T22:19:37.907Z,4.60
2023-02-03T22:22:23.013Z,4.80
2023-02-03T22:25:08.249Z,4.10
2023-02-03T22:27:53.322Z,4.80
2023-02-03T22:30:38.531Z,3.65
2023-02-03T22:33:23.384Z,3.13
2023-02-03T22:36:10.075Z,3.00
2023-02-03T22:38:55.274Z,3.05
2023-02-03T22:41:40.058Z,2.73
2023-02-03T22:44:24.974Z,2.97
2023-02-03T22:47:09.689Z,3.17
2023-02-03T22:49:54.536Z,2.60
2023-02-03T22:52:40.111Z,2.38
2023-02-03T22:55:25.552Z,2.77
2023-02-03T22:58:11.921Z,3.00
2023-02-03T23:00:57.010Z,2.15
2023-02-03T23:03:41.755Z,2.60
2023-02-03T23:06:26.669Z,2.97
2023-02-03T23:09:11.525Z,2.47
2023-02-03T23:11:56.284Z,2.05
2023-02-03T23:14:41.066Z,1.55
2023-02-03T23:17:25.716Z,1.95
2023-02-03T23:20:12.717Z,2.22
2023-02-03T23:22:57.635Z,2.10
2023-02-03T23:25:42.448Z,1.92
2023-02-03T23:28:27.311Z,1.98
2023-02-03T23:31:12.425Z,1.60
2023-02-03T23:34:16.256Z,2.30
2023-02-03T23:37:01.715Z,1.60
2023-02-03T23:39:46.713Z,1.52
2023-02-03T23:42:31.429Z,1.30
2023-02-03T23:45:16.558Z,1.80
2023-02-03T23:48:01.737Z,1.45
2023-02-03T23:50:47.054Z,1.80
2023-02-03T23:53:32.028Z,1.95
2023-02-03T23:56:16.902Z,1.35
2023-02-03T23:59:01.806Z,1.83
